Time;durP1;ratioP1;P1;durP2;ratioP2;P2;SDS_P1;SDS_P2;PMS_P1;PMS_P2;Temp;Humidity;BMP_temperature;BMP_pressure;BME280_temperature;BME280_humidity;BME280_pressure;Samples;Min_cycle;Max_cycle;Signal;HPM_P1;HPM_P2
2021/01/01 00:01:43;;;;;;;7.60;7.10;;;16.00;28.10;;;;;;5115071;28;20158;-59
2021/01/01 00:04:09;;;;;;;7.43;6.72;;;16.00;28.10;;;;;;5114979;28;20222;-59
2021/01/01 00:06:36;;;;;;;8.13;7.45;;;16.00;28.10;;;;;;5114900;28;20162;-59
2021/01/01 00:09:03;;;;;;;8.05;7.45;;;16.10;28.20;;;;;;5114600;28;20149;-59
2021/01/01 00:11:28;;;;;;;7.85;7.30;;;16.00;28.10;;;;;;5114883;28;20149;-59
2021/01/01 00:13:54;;;;;;;7.60;6.80;;;16.00;28.10;;;;;;5115004;28;20164;-59
2021/01/01 00:16:21;;;;;;;7.53;6.80;;;16.00;28.10;;;;;;5114857;28;20158;-59
2021/01/01 00:18:47;;;;;;;7.55;6.95;;;16.10;28.20;;;;;;5114684;28;20438;-59
2021/01/01 00:21:14;;;;;;;7.83;7.17;;;16.00;28.10;;;;;;5114804;28;20161;-59
2021/01/01 00:23:39;;;;;;;8.38;7.70;;;16.00;28.10;;;;;;5114264;28;20723;-59
2021/01/01 00:26:13;;;;;;;7.87;7.20;;;16.00;28.10;;;;;;5114793;28;20646;-59
2021/01/01 00:28:46;;;;;;;7.50;7.00;;;16.00;28.10;;;;;;5114436;28;20149;-59
2021/01/01 00:31:20;;;;;;;9.02;8.13;;;16.00;28.10;;;;;;5097247;28;20166;-59
2021/01/01 00:33:46;;;;;;;7.43;6.93;;;16.00;28.10;;;;;;5114475;28;20157;-59
2021/01/01 00:36:14;;;;;;;8.40;7.73;;;16.00;28.10;;;;;;5096195;28;20624;-59
2021/01/01 00:38:52;;;;;;;7.82;7.32;;;16.00;28.10;;;;;;5113873;28;20439;-59
2021/01/01 00:41:29;;;;;;;8.00;7.45;;;16.00;28.10;;;;;;5114385;28;20145;-59
2021/01/01 00:43:56;;;;;;;9.02;8.32;;;16.00;28.10;;;;;;5114228;28;20181;-59
2021/01/01 00:46:23;;;;;;;8.50;7.80;;;16.00;28.10;;;;;;5096781;28;20172;-59
2021/01/01 00:48:49;;;;;;;8.98;8.15;;;16.00;28.10;;;;;;5114655;28;20505;-59
2021/01/01 00:51:22;;;;;;;7.80;7.20;;;16.00;28.10;;;;;;5114167;28;20616;-59
2021/01/01 00:53:48;;;;;;;8.32;7.63;;;16.00;28.00;;;;;;5113850;28;20391;-59
2021/01/01 00:56:25;;;;;;;7.77;7.17;;;16.00;28.00;;;;;;5114256;28;20550;-59
2021/01/01 00:58:52;;;;;;;7.28;6.68;;;16.00;28.10;;;;;;5113771;28;20191;-59
2021/01/01 01:01:19;;;;;;;8.75;7.93;;;16.00;28.00;;;;;;5114205;28;20158;-59
2021/01/01 01:03:45;;;;;;;8.38;7.78;;;16.00;28.00;;;;;;5114273;28;20186;-59
2021/01/01 01:06:11;;;;;;;8.30;7.67;;;16.00;28.00;;;;;;5114152;28;20239;-59
2021/01/01 01:08:37;;;;;;;8.03;7.23;;;16.00;28.00;;;;;;5113543;28;20407;-60
2021/01/01 01:11:02;;;;;;;8.30;7.63;;;16.00;28.60;;;;;;5095675;28;20407;-59
2021/01/01 01:13:28;;;;;;;7.83;7.23;;;16.00;28.00;;;;;;5113900;28;20620;-59
2021/01/01 01:15:54;;;;;;;9.23;8.53;;;16.00;28.00;;;;;;5114087;28;20407;-58
2021/01/01 01:18:19;;;;;;;8.27;7.57;;;16.00;28.00;;;;;;5113701;28;20184;-59
2021/01/01 01:20:45;;;;;;;8.63;7.93;;;16.00;28.00;;;;;;5114000;28;20165;-59
2021/01/01 01:23:12;;;;;;;8.50;7.80;;;16.10;28.00;;;;;;5113371;28;20250;-59
2021/01/01 01:25:37;;;;;;;9.02;8.32;;;16.10;28.00;;;;;;5113680;28;20158;-59
2021/01/01 01:28:03;;;;;;;8.63;7.90;;;16.00;27.90;;;;;;5113999;28;20230;-59
2021/01/01 01:30:29;;;;;;;8.77;8.07;;;16.10;28.00;;;;;;5095888;28;20165;-59
2021/01/01 01:32:55;;;;;;;8.60;7.80;;;16.10;28.00;;;;;;5113740;28;20966;-59
2021/01/01 01:35:21;;;;;;;8.10;7.50;;;16.10;28.00;;;;;;5114264;28;20157;-59
2021/01/01 01:37:46;;;;;;;8.35;7.75;;;16.10;27.90;;;;;;5113310;28;20528;-59
2021/01/01 01:40:12;;;;;;;8.47;7.83;;;16.10;27.90;;;;;;5113785;28;20164;-59
2021/01/01 01:42:38;;;;;;;8.30;7.70;;;16.00;27.90;;;;;;5113531;28;20158;-59
2021/01/01 01:45:06;;;;;;;8.17;7.47;;;16.10;27.90;;;;;;5113911;28;20161;-59
2021/01/01 01:47:33;;;;;;;9.15;8.48;;;16.10;28.50;;;;;;5113703;28;20161;-59
2021/01/01 01:49:58;;;;;;;8.10;7.50;;;16.10;27.90;;;;;;5113982;28;20177;-59
2021/01/01 01:52:24;;;;;;;7.80;7.20;;;16.10;27.90;;;;;;5113078;28;20520;-59
2021/01/01 01:54:53;;;;;;;8.07;7.47;;;16.10;27.90;;;;;;5113608;28;20158;-59
2021/01/01 01:57:20;;;;;;;7.90;7.20;;;16.10;27.90;;;;;;5113399;28;20446;-59
2021/01/01 01:59:50;;;;;;;8.40;7.80;;;16.10;27.90;;;;;;5113572;28;20208;-59
2021/01/01 02:02:15;;;;;;;8.10;7.47;;;16.10;27.90;;;;;;5113398;28;20244;-59
2021/01/01 02:04:43;;;;;;;8.83;8.13;;;16.10;27.90;;;;;;5116457;28;20240;-59
2021/01/01 02:07:09;;;;;;;8.00;7.40;;;16.10;27.90;;;;;;5116832;28;20160;-59
2021/01/01 02:09:35;;;;;;;8.50;7.80;;;16.10;27.90;;;;;;5099044;28;20180;-59
2021/01/01 02:12:01;;;;;;;8.67;7.97;;;16.10;27.90;;;;;;5117092;28;20653;-59
2021/01/01 02:14:27;;;;;;;7.80;7.30;;;16.10;27.80;;;;;;5117406;28;20411;-59
2021/01/01 02:16:53;;;;;;;7.82;7.22;;;16.10;27.80;;;;;;5117031;28;20439;-59
2021/01/01 02:19:18;;;;;;;7.33;6.83;;;16.10;27.80;;;;;;5117099;28;20504;-59
2021/01/01 02:21:44;;;;;;;8.47;7.83;;;16.10;27.80;;;;;;5117223;28;20282;-59
2021/01/01 02:24:11;;;;;;;8.37;7.67;;;16.10;27.80;;;;;;5116428;28;20248;-59
2021/01/01 02:26:37;;;;;;;8.00;7.50;;;16.10;27.80;;;;;;5116969;28;20440;-59
2021/01/01 02:29:04;;;;;;;8.52;7.93;;;16.10;27.80;;;;;;5116949;28;20160;-59
2021/01/01 02:31:29;;;;;;;7.50;7.00;;;16.10;27.80;;;;;;5116839;28;20150;-59
2021/01/01 02:33:55;;;;;;;8.40;7.80;;;16.10;27.70;;;;;;5116670;28;20718;-59
2021/01/01 02:36:21;;;;;;;7.70;7.10;;;16.10;27.80;;;;;;5098359;28;20631;-59
2021/01/01 02:38:47;;;;;;;8.93;8.20;;;16.10;27.70;;;;;;5116082;28;20189;-59
2021/01/01 02:41:14;;;;;;;8.40;7.70;;;16.10;27.70;;;;;;5116721;28;20236;-59
2021/01/01 02:43:39;;;;;;;8.70;8.00;;;16.10;27.70;;;;;;5116607;28;20194;-59
2021/01/01 02:46:05;;;;;;;7.27;6.77;;;16.10;27.70;;;;;;5098502;28;20535;-59
2021/01/01 02:48:31;;;;;;;8.47;7.87;;;16.10;28.30;;;;;;5116629;28;20165;-59
2021/01/01 02:50:56;;;;;;;8.77;7.97;;;16.10;27.70;;;;;;5116477;28;20647;-59
2021/01/01 02:53:22;;;;;;;8.70;8.00;;;16.10;27.70;;;;;;5115891;28;20153;-59
2021/01/01 02:55:49;;;;;;;7.23;6.73;;;16.10;27.70;;;;;;5098281;28;20157;-59
2021/01/01 02:58:15;;;;;;;8.80;8.00;;;16.10;27.70;;;;;;5116312;28;20343;-59
2021/01/01 03:00:41;;;;;;;7.63;7.03;;;16.10;27.70;;;;;;5116213;28;20242;-59
2021/01/01 03:03:08;;;;;;;8.20;7.60;;;16.10;27.70;;;;;;5116227;28;20200;-59
2021/01/01 03:05:34;;;;;;;8.18;7.55;;;16.10;27.70;;;;;;5116240;28;20146;-60
2021/01/01 03:08:00;;;;;;;8.70;7.50;;;16.10;27.70;;;;;;5115809;28;20592;-59
2021/01/01 03:10:26;;;;;;;8.00;7.40;;;16.10;27.70;;;;;;5116282;28;20157;-59
2021/01/01 03:12:51;;;;;;;9.20;8.50;;;16.10;27.70;;;;;;5116121;28;20611;-59
2021/01/01 03:15:17;;;;;;;8.17;7.40;;;16.10;27.70;;;;;;5115545;28;20172;-59
2021/01/01 03:17:43;;;;;;;8.53;7.83;;;16.10;27.70;;;;;;5097747;28;20237;-59
2021/01/01 03:20:10;;;;;;;8.85;8.05;;;16.10;27.70;;;;;;5098043;28;20165;-59
2021/01/01 03:22:36;;;;;;;7.70;7.15;;;16.10;27.70;;;;;;5115391;28;20157;-59
2021/01/01 03:25:04;;;;;;;7.85;7.25;;;15.50;27.30;;;;;;5116036;28;20232;-59
2021/01/01 03:27:29;;;;;;;8.00;7.38;;;16.10;27.70;;;;;;5115673;28;20176;-59
2021/01/01 03:29:55;;;;;;;8.23;7.63;;;16.10;27.70;;;;;;5097681;28;20176;-59
2021/01/01 03:32:20;;;;;;;7.50;7.00;;;16.10;27.70;;;;;;5115639;28;20210;-60
2021/01/01 03:34:46;;;;;;;8.43;7.83;;;16.10;27.70;;;;;;5097816;28;20620;-58
2021/01/01 03:37:12;;;;;;;8.47;7.67;;;16.10;27.70;;;;;;5114945;28;20642;-58
2021/01/01 03:39:37;;;;;;;7.33;6.67;;;16.10;27.70;;;;;;5097360;28;20157;-58
2021/01/01 03:42:03;;;;;;;7.90;7.20;;;16.10;27.70;;;;;;5115425;28;20199;-58
2021/01/01 03:44:29;;;;;;;8.40;7.77;;;16.10;27.70;;;;;;5115443;28;20167;-58
2021/01/01 03:46:54;;;;;;;7.90;7.30;;;16.10;27.70;;;;;;5115259;28;20399;-59
2021/01/01 03:49:20;;;;;;;8.03;7.40;;;16.10;27.70;;;;;;5115675;28;20180;-58
2021/01/01 03:51:46;;;;;;;8.23;7.63;;;16.10;27.70;;;;;;5115199;28;20616;-59
2021/01/01 03:54:11;;;;;;;7.87;7.33;;;16.10;27.70;;;;;;5114767;28;20399;-59
2021/01/01 03:56:37;;;;;;;8.00;7.40;;;16.10;27.70;;;;;;5115301;28;20165;-59
2021/01/01 03:59:03;;;;;;;7.00;6.50;;;16.10;27.70;;;;;;5115067;28;20149;-59
2021/01/01 04:01:28;;;;;;;7.70;7.20;;;16.10;27.70;;;;;;5115117;28;20559;-59
2021/01/01 04:03:54;;;;;;;7.90;7.27;;;16.10;27.70;;;;;;5115061;28;20158;-59
2021/01/01 04:06:20;;;;;;;7.45;6.95;;;16.10;27.70;;;;;;5115092;28;20153;-59
2021/01/01 04:08:46;;;;;;;7.50;6.90;;;16.10;27.70;;;;;;5114501;28;20162;-59
2021/01/01 04:11:11;;;;;;;7.77;7.17;;;16.10;27.70;;;;;;5115004;28;20157;-59
2021/01/01 04:13:37;;;;;;;7.93;7.43;;;16.10;27.70;;;;;;5114833;28;20675;-59
2021/01/01 04:16:03;;;;;;;7.80;7.27;;;16.10;27.70;;;;;;5114810;28;20201;-59
2021/01/01 04:18:28;;;;;;;7.77;7.27;;;16.10;27.70;;;;;;5114586;28;20674;-59
2021/01/01 04:20:57;;;;;;;7.90;7.20;;;16.10;27.70;;;;;;5114744;28;20890;-59
2021/01/01 04:23:22;;;;;;;7.70;7.20;;;16.10;27.70;;;;;;5114242;28;20153;-59
2021/01/01 04:25:48;;;;;;;8.13;7.57;;;16.10;27.70;;;;;;5096319;28;20194;-59
2021/01/01 04:28:14;;;;;;;9.00;8.30;;;16.10;27.70;;;;;;5113792;28;20608;-59
2021/01/01 04:30:39;;;;;;;8.03;7.33;;;16.10;27.70;;;;;;5114541;28;20399;-58
2021/01/01 04:33:05;;;;;;;8.70;8.00;;;16.10;27.70;;;;;;5096371;28;20512;-58
2021/01/01 04:35:31;;;;;;;7.70;7.10;;;16.10;28.20;;;;;;5114449;28;20180;-58
2021/01/01 04:37:57;;;;;;;7.23;6.73;;;16.10;27.70;;;;;;5113997;28;20712;-59
2021/01/01 04:40:22;;;;;;;7.40;6.90;;;16.10;27.70;;;;;;5096219;28;20921;-59
2021/01/01 04:42:48;;;;;;;7.33;6.83;;;16.00;27.70;;;;;;5114272;28;20634;-58
2021/01/01 04:45:15;;;;;;;7.23;6.73;;;16.10;27.70;;;;;;5114301;28;20651;-58
2021/01/01 04:47:41;;;;;;;7.70;7.10;;;16.10;27.70;;;;;;5114413;28;20153;-59
2021/01/01 04:50:07;;;;;;;7.83;7.33;;;16.10;27.70;;;;;;5114131;28;20177;-59
2021/01/01 04:52:33;;;;;;;9.00;8.40;;;16.10;27.70;;;;;;5095825;28;20149;-59
2021/01/01 04:55:00;;;;;;;7.60;7.10;;;16.10;27.70;;;;;;5114220;28;20406;-59
2021/01/01 04:57:27;;;;;;;7.82;7.22;;;16.10;27.70;;;;;;5114441;28;20246;-58
2021/01/01 04:59:53;;;;;;;7.75;7.18;;;16.10;27.70;;;;;;5114184;28;20213;-59
2021/01/01 05:02:19;;;;;;;6.90;6.40;;;16.10;27.70;;;;;;5114060;28;20153;-59
2021/01/01 05:04:46;;;;;;;8.10;7.55;;;16.10;27.70;;;;;;5113946;28;20472;-58
2021/01/01 05:07:18;;;;;;;7.07;6.57;;;16.10;27.70;;;;;;5113719;28;20153;-58
2021/01/01 05:09:45;;;;;;;7.68;7.07;;;16.10;27.70;;;;;;5114157;28;20169;-58
2021/01/01 05:12:11;;;;;;;7.30;6.80;;;16.10;27.70;;;;;;5113913;28;20157;-59
2021/01/01 05:14:38;;;;;;;8.77;8.18;;;16.10;27.70;;;;;;5114084;28;20609;-58
2021/01/01 05:17:04;;;;;;;7.80;7.20;;;16.10;27.70;;;;;;5114245;28;20193;-59
2021/01/01 05:19:41;;;;;;;7.18;6.68;;;16.10;27.70;;;;;;5114177;28;20631;-58
2021/01/01 05:22:09;;;;;;;7.05;6.55;;;16.10;27.70;;;;;;5113513;28;20149;-58
2021/01/01 05:24:46;;;;;;;8.25;7.63;;;16.10;27.70;;;;;;5129849;28;20180;-58
2021/01/01 05:27:17;;;;;;;8.57;8.00;;;16.10;27.70;;;;;;5113848;28;20161;-58
2021/01/01 05:29:51;;;;;;;7.30;6.80;;;16.10;27.70;;;;;;5095991;28;20168;-59
2021/01/01 05:32:25;;;;;;;7.22;6.63;;;16.10;27.70;;;;;;5113647;28;20153;-58
2021/01/01 05:34:51;;;;;;;8.63;7.93;;;16.10;27.70;;;;;;5113821;28;20154;-58
2021/01/01 05:37:26;;;;;;;7.45;6.95;;;16.10;27.70;;;;;;5095007;28;20200;-58
2021/01/01 05:40:09;;;;;;;6.47;6.07;;;16.00;27.60;;;;;;5117326;28;20152;-58
2021/01/01 05:42:36;;;;;;;7.90;7.30;;;16.10;27.70;;;;;;5117833;28;20153;-59
2021/01/01 05:45:25;;;;;;;7.15;6.65;;;16.10;27.70;;;;;;5117864;28;20188;-58
2021/01/01 05:48:07;;;;;;;8.02;7.40;;;16.10;27.70;;;;;;5117644;28;20149;-59
2021/01/01 05:50:34;;;;;;;8.15;7.55;;;16.10;27.70;;;;;;5117624;28;20173;-58
2021/01/01 05:53:10;;;;;;;7.78;7.18;;;16.10;27.70;;;;;;5117142;28;20555;-59
2021/01/01 05:55:35;;;;;;;7.88;7.28;;;16.10;27.70;;;;;;5117735;28;20209;-59
2021/01/01 05:58:01;;;;;;;7.80;7.20;;;16.10;27.70;;;;;;5117602;28;20185;-59
2021/01/01 06:00:27;;;;;;;8.10;7.40;;;16.10;27.70;;;;;;5117338;28;20220;-59
2021/01/01 06:02:57;;;;;;;8.20;7.70;;;16.10;27.70;;;;;;5117339;28;20160;-58
2021/01/01 06:05:26;;;;;;;6.90;6.40;;;16.10;27.70;;;;;;5117517;28;20149;-59
2021/01/01 06:07:56;;;;;;;7.55;6.95;;;16.10;27.70;;;;;;5116966;28;20164;-59
2021/01/01 06:10:23;;;;;;;7.80;7.30;;;16.10;27.70;;;;;;5117373;28;20153;-59
2021/01/01 06:12:53;;;;;;;6.40;6.00;;;16.10;27.70;;;;;;5117191;28;20157;-59
2021/01/01 06:15:22;;;;;;;6.70;6.30;;;16.10;27.70;;;;;;5099024;28;20243;-59
2021/01/01 06:17:52;;;;;;;7.85;7.35;;;16.10;27.70;;;;;;5117270;28;20189;-58
2021/01/01 06:20:20;;;;;;;6.60;6.10;;;16.10;27.70;;;;;;5117256;28;20153;-58
2021/01/01 06:23:03;;;;;;;7.00;6.50;;;16.10;27.70;;;;;;5116606;28;20158;-59
2021/01/01 06:25:29;;;;;;;7.18;6.70;;;16.00;27.70;;;;;;5117088;28;20172;-58
2021/01/01 06:27:55;;;;;;;7.65;7.05;;;16.10;27.70;;;;;;5116991;28;20206;-59
2021/01/01 06:30:24;;;;;;;7.18;6.68;;;16.10;27.70;;;;;;5116836;28;20685;-59
2021/01/01 06:32:51;;;;;;;7.45;6.85;;;16.00;27.70;;;;;;5116775;28;20178;-59
2021/01/01 06:35:19;;;;;;;7.20;6.70;;;16.10;27.70;;;;;;5116819;28;20635;-58
2021/01/01 06:37:47;;;;;;;7.85;7.35;;;16.10;27.70;;;;;;5116567;28;20200;-59
2021/01/01 06:40:22;;;;;;;8.10;7.43;;;16.10;27.70;;;;;;5116810;28;20632;-59
2021/01/01 06:43:07;;;;;;;7.93;7.32;;;16.10;27.70;;;;;;5116571;28;20156;-59
2021/01/01 06:45:44;;;;;;;6.75;6.35;;;16.10;27.70;;;;;;5116628;28;20175;-59
2021/01/01 06:48:18;;;;;;;6.50;6.05;;;16.10;27.70;;;;;;5116614;28;20153;-59
2021/01/01 06:50:44;;;;;;;7.78;7.00;;;16.10;27.70;;;;;;5115404;28;20622;-59
2021/01/01 06:53:11;;;;;;;6.22;5.82;;;16.10;27.70;;;;;;5116079;28;20165;-59
2021/01/01 06:55:38;;;;;;;7.45;7.00;;;16.00;27.70;;;;;;5116410;28;20181;-59
2021/01/01 06:58:04;;;;;;;7.72;7.13;;;16.00;27.70;;;;;;5116357;28;20537;-59
2021/01/01 07:00:45;;;;;;;6.90;6.30;;;16.00;27.70;;;;;;5116187;28;20224;-59
2021/01/01 07:03:29;;;;;;;7.10;6.60;;;16.00;27.70;;;;;;5116195;28;20237;-59
2021/01/01 07:05:55;;;;;;;6.88;6.38;;;16.00;27.70;;;;;;5116305;28;20195;-59
2021/01/01 07:08:42;;;;;;;7.75;7.25;;;16.00;27.70;;;;;;5115814;28;20227;-59
2021/01/01 07:11:07;;;;;;;7.15;6.65;;;16.00;27.70;;;;;;5097910;28;20156;-59
2021/01/01 07:13:50;;;;;;;7.13;6.63;;;16.00;27.80;;;;;;5115920;28;20164;-59
2021/01/01 07:16:18;;;;;;;6.82;6.43;;;16.00;27.70;;;;;;5116203;28;20157;-59
2021/01/01 07:18:44;;;;;;;6.68;6.28;;;16.00;27.70;;;;;;5115855;28;20181;-59
2021/01/01 07:21:11;;;;;;;6.90;6.38;;;16.00;27.80;;;;;;5116122;28;20230;-59
2021/01/01 07:23:37;;;;;;;6.85;6.35;;;16.00;27.70;;;;;;5115458;28;20624;-59
2021/01/01 07:26:04;;;;;;;6.55;6.05;;;16.00;27.70;;;;;;5131866;27;20165;-59
2021/01/01 07:28:31;;;;;;;6.82;6.32;;;16.00;27.70;;;;;;5131645;27;20532;-59
2021/01/01 07:30:57;;;;;;;6.88;6.38;;;16.00;27.80;;;;;;5115787;28;20172;-59
2021/01/01 07:33:24;;;;;;;7.13;6.68;;;16.00;27.70;;;;;;5115702;28;20550;-59
2021/01/01 07:35:58;;;;;;;7.28;6.78;;;16.00;27.70;;;;;;5116001;28;20611;-59
2021/01/01 07:38:26;;;;;;;7.45;6.85;;;16.00;27.80;;;;;;5115215;28;20192;-59
2021/01/01 07:40:53;;;;;;;7.05;6.55;;;16.00;27.70;;;;;;5116139;28;20195;-59
2021/01/01 07:43:19;;;;;;;6.90;6.40;;;16.00;27.70;;;;;;5115412;28;20164;-58
2021/01/01 07:45:45;;;;;;;6.82;6.40;;;16.00;27.70;;;;;;5114481;28;20168;-58
2021/01/01 07:48:11;;;;;;;6.07;5.67;;;16.00;27.70;;;;;;5115446;28;20248;-60
2021/01/01 07:50:39;;;;;;;7.30;6.80;;;16.00;27.70;;;;;;5115279;28;20169;-59
2021/01/01 07:53:05;;;;;;;7.07;6.47;;;16.00;27.70;;;;;;5114863;28;20395;-60
2021/01/01 07:55:32;;;;;;;6.55;6.10;;;16.00;27.70;;;;;;5115323;28;20164;-59
2021/01/01 07:58:04;;;;;;;7.40;6.90;;;16.00;27.70;;;;;;5115212;28;20189;-59
2021/01/01 08:00:31;;;;;;;6.60;6.20;;;16.00;27.70;;;;;;5115098;28;20208;-59
2021/01/01 08:02:59;;;;;;;7.28;6.78;;;16.00;27.70;;;;;;5114889;28;20162;-59
2021/01/01 08:05:26;;;;;;;6.55;6.15;;;16.00;27.70;;;;;;5115054;28;20168;-59
2021/01/01 08:07:52;;;;;;;6.72;6.22;;;16.00;27.70;;;;;;5114665;28;20161;-58
2021/01/01 08:10:34;;;;;;;6.63;6.23;;;16.00;27.70;;;;;;5115058;28;20164;-59
2021/01/01 08:13:00;;;;;;;7.60;7.00;;;16.10;27.70;;;;;;5096688;28;20403;-58
2021/01/01 08:15:30;;;;;;;7.00;6.50;;;16.10;27.70;;;;;;5114954;28;20168;-59
2021/01/01 08:18:06;;;;;;;7.40;6.80;;;16.10;27.70;;;;;;5114671;28;20624;-59
2021/01/01 08:20:32;;;;;;;6.35;5.95;;;16.10;28.20;;;;;;5114945;28;20149;-59
2021/01/01 08:23:02;;;;;;;6.73;6.23;;;16.10;27.60;;;;;;5114330;28;20673;-59
2021/01/01 08:25:29;;;;;;;7.13;6.72;;;16.10;27.60;;;;;;5114619;28;20180;-59
2021/01/01 08:27:55;;;;;;;6.80;6.30;;;16.10;27.60;;;;;;5096348;28;20682;-59
2021/01/01 08:30:21;;;;;;;6.67;6.27;;;16.10;28.20;;;;;;5114799;28;20244;-58
2021/01/01 08:32:48;;;;;;;7.15;6.65;;;16.10;27.60;;;;;;5114568;28;20411;-59
2021/01/01 08:35:14;;;;;;;7.00;6.50;;;16.10;27.60;;;;;;5114583;28;20160;-59
2021/01/01 08:37:40;;;;;;;6.30;5.80;;;16.10;27.60;;;;;;5113993;28;20205;-59
2021/01/01 08:40:11;;;;;;;6.70;6.30;;;16.10;27.50;;;;;;5114501;28;20167;-59
2021/01/01 08:42:38;;;;;;;7.40;6.82;;;16.10;27.50;;;;;;5095880;28;20549;-58
2021/01/01 08:45:08;;;;;;;6.47;5.97;;;16.10;27.50;;;;;;5130238;27;20181;-59
2021/01/01 08:47:44;;;;;;;6.30;5.90;;;16.10;27.50;;;;;;5114417;28;20162;-58
2021/01/01 08:50:27;;;;;;;6.45;6.05;;;16.10;27.50;;;;;;5130269;27;20172;-58
2021/01/01 08:53:03;;;;;;;7.18;6.68;;;16.10;27.40;;;;;;5113670;28;20149;-59
2021/01/01 08:55:30;;;;;;;6.50;6.10;;;16.20;27.60;;;;;;5114575;28;20183;-59
2021/01/01 08:58:16;;;;;;;6.97;6.47;;;16.10;27.40;;;;;;5096026;28;20258;-60
2021/01/01 09:00:46;;;;;;;6.60;6.10;;;16.10;27.40;;;;;;5113966;28;20271;-60
2021/01/01 09:03:21;;;;;;;6.65;6.25;;;16.10;27.40;;;;;;5114253;28;20504;-60
2021/01/01 09:05:54;;;;;;;6.10;5.70;;;16.10;27.40;;;;;;5114114;28;20232;-59
2021/01/01 09:08:24;;;;;;;7.82;7.32;;;16.10;27.40;;;;;;5113587;28;20153;-59
2021/01/01 09:10:59;;;;;;;6.60;6.10;;;16.10;27.40;;;;;;5096013;28;20157;-59
2021/01/01 09:13:26;;;;;;;6.25;5.85;;;16.20;27.40;;;;;;5113461;28;20552;-59
2021/01/01 09:16:12;;;;;;;6.82;6.40;;;16.20;27.40;;;;;;5114129;28;20157;-59
2021/01/01 09:18:38;;;;;;;6.10;5.70;;;16.20;27.40;;;;;;5095337;28;20212;-59
2021/01/01 09:21:13;;;;;;;7.57;7.07;;;16.20;27.40;;;;;;5114139;28;20496;-59
2021/01/01 09:23:40;;;;;;;5.80;5.40;;;16.20;27.30;;;;;;5113524;28;20402;-59
2021/01/01 09:26:07;;;;;;;5.40;5.03;;;16.20;27.30;;;;;;5113752;28;20149;-59
2021/01/01 09:28:34;;;;;;;6.95;6.45;;;16.20;27.30;;;;;;5114047;28;20220;-59
2021/01/01 09:31:00;;;;;;;6.72;6.30;;;16.30;27.30;;;;;;5114245;28;20243;-59
2021/01/01 09:33:27;;;;;;;6.50;6.00;;;16.30;27.30;;;;;;5113781;28;20179;-59
2021/01/01 09:35:53;;;;;;;6.40;5.90;;;16.30;27.20;;;;;;5095881;28;20203;-60
2021/01/01 09:38:19;;;;;;;5.82;5.53;;;16.30;27.10;;;;;;5113173;28;20245;-59
2021/01/01 09:40:45;;;;;;;6.80;6.20;;;16.40;27.10;;;;;;5129705;28;20172;-59
2021/01/01 09:43:11;;;;;;;5.90;5.50;;;16.40;27.10;;;;;;5113835;28;20280;-59
2021/01/01 09:45:37;;;;;;;6.03;5.70;;;16.30;27.00;;;;;;5113849;28;20623;-59
2021/01/01 09:48:05;;;;;;;6.40;6.00;;;16.40;27.00;;;;;;5095809;28;20475;-60
2021/01/01 09:50:31;;;;;;;6.15;5.75;;;16.40;27.00;;;;;;5095644;28;20695;-59
2021/01/01 09:52:56;;;;;;;5.93;5.63;;;16.40;27.00;;;;;;5113162;28;20195;-59
2021/01/01 09:55:22;;;;;;;6.20;5.80;;;16.40;27.00;;;;;;5113834;28;20418;-60
2021/01/01 09:57:48;;;;;;;5.83;5.43;;;16.40;26.90;;;;;;5113618;28;20543;-59
2021/01/01 10:00:17;;;;;;;6.47;6.07;;;16.40;26.90;;;;;;5113565;28;20684;-59
2021/01/01 10:02:43;;;;;;;6.70;6.13;;;16.40;26.90;;;;;;5113461;28;20414;-60
2021/01/01 10:05:10;;;;;;;7.10;6.60;;;16.40;26.90;;;;;;5095300;28;20165;-60
2021/01/01 10:07:36;;;;;;;6.18;5.78;;;16.40;27.40;;;;;;5094801;28;20415;-59
2021/01/01 10:10:07;;;;;;;6.28;5.80;;;16.40;26.80;;;;;;5113677;28;20168;-59
2021/01/01 10:12:33;;;;;;;6.45;6.05;;;16.50;26.90;;;;;;5113472;28;20154;-59
2021/01/01 10:14:59;;;;;;;6.17;5.77;;;16.50;27.30;;;;;;5113636;28;20159;-59
2021/01/01 10:17:26;;;;;;;5.75;5.35;;;16.50;26.80;;;;;;5095442;28;20446;-59
2021/01/01 10:19:52;;;;;;;6.55;6.05;;;16.50;26.80;;;;;;5113571;28;20232;-59
2021/01/01 10:22:18;;;;;;;7.30;6.77;;;16.50;26.70;;;;;;5112744;28;20300;-60
2021/01/01 10:24:44;;;;;;;8.00;7.40;;;16.50;26.70;;;;;;5113347;28;20453;-59
2021/01/01 10:27:11;;;;;;;8.18;7.57;;;16.50;26.60;;;;;;5116700;28;20399;-59
2021/01/01 10:29:36;;;;;;;8.98;8.27;;;16.50;26.60;;;;;;5117046;28;20169;-59
2021/01/01 10:32:12;;;;;;;8.47;7.73;;;16.50;26.60;;;;;;5116776;28;20145;-59
2021/01/01 10:34:39;;;;;;;8.70;8.00;;;16.50;26.60;;;;;;5116684;28;20611;-59
2021/01/01 10:37:05;;;;;;;8.57;7.97;;;16.60;26.70;;;;;;5116091;28;20630;-59
2021/01/01 10:39:30;;;;;;;8.30;7.70;;;16.50;26.60;;;;;;5098546;28;20153;-60
2021/01/01 10:41:56;;;;;;;8.80;8.20;;;16.50;26.60;;;;;;5116771;28;20163;-59
2021/01/01 10:44:22;;;;;;;8.23;7.53;;;16.50;26.60;;;;;;5098612;28;20252;-59
2021/01/01 10:46:54;;;;;;;9.90;9.17;;;16.50;26.60;;;;;;5116684;28;20146;-59
2021/01/01 10:49:23;;;;;;;8.77;7.90;;;16.50;26.60;;;;;;5116563;28;20509;-60
2021/01/01 10:51:49;;;;;;;9.40;8.65;;;16.50;26.60;;;;;;5116237;28;20169;-60
2021/01/01 10:54:16;;;;;;;9.45;8.65;;;16.50;26.60;;;;;;5131787;27;20177;-59
2021/01/01 10:56:45;;;;;;;8.85;8.25;;;16.50;26.60;;;;;;5098338;28;20172;-59
2021/01/01 10:59:10;;;;;;;9.25;8.50;;;16.50;26.60;;;;;;5116135;28;20220;-59
2021/01/01 11:01:36;;;;;;;9.07;8.37;;;16.50;26.60;;;;;;5116499;28;20508;-59
2021/01/01 11:04:02;;;;;;;9.30;8.50;;;16.50;26.60;;;;;;5116313;28;20647;-59
2021/01/01 11:06:27;;;;;;;8.70;7.90;;;16.50;26.60;;;;;;5116067;28;20555;-60
2021/01/01 11:08:53;;;;;;;9.50;8.70;;;16.50;26.60;;;;;;5097597;28;20184;-59
2021/01/01 11:11:23;;;;;;;8.98;8.20;;;16.50;26.60;;;;;;5116135;28;20153;-60
2021/01/01 12:25:08;;;;;;;8.30;7.70;;;16.50;26.60;;;;;;5098417;28;20508;-59
2021/01/01 12:27:37;;;;;;;8.60;7.80;;;16.50;26.60;;;;;;5114726;28;20157;-59
2021/01/01 12:30:07;;;;;;;7.57;6.97;;;16.50;26.60;;;;;;5114748;28;20168;-59
2021/01/01 12:32:33;;;;;;;7.80;7.20;;;16.50;26.60;;;;;;5114473;28;20149;-59
2021/01/01 12:35:00;;;;;;;7.80;7.30;;;16.50;26.60;;;;;;5114508;28;20222;-59
2021/01/01 12:37:26;;;;;;;8.15;7.60;;;16.50;26.60;;;;;;5114097;28;20188;-59
2021/01/01 12:39:52;;;;;;;8.23;7.53;;;16.50;26.60;;;;;;5096667;28;20153;-59
2021/01/01 12:42:19;;;;;;;8.70;8.03;;;16.60;26.60;;;;;;5114283;28;20485;-59
2021/01/01 12:44:45;;;;;;;8.20;7.50;;;16.60;26.50;;;;;;5114634;28;20391;-59
2021/01/01 12:47:11;;;;;;;6.55;6.15;;;16.60;26.50;;;;;;5114209;28;20647;-59
2021/01/01 12:49:37;;;;;;;7.43;6.93;;;16.60;26.50;;;;;;5113691;28;20180;-59
2021/01/01 12:52:03;;;;;;;8.03;7.53;;;16.60;26.40;;;;;;5095525;28;20799;-59
2021/01/01 12:54:28;;;;;;;7.80;7.30;;;16.60;26.30;;;;;;5114249;28;20492;-59
2021/01/01 12:56:57;;;;;;;8.03;7.43;;;16.60;26.40;;;;;;5114138;28;20199;-59
2021/01/01 12:59:23;;;;;;;8.57;7.80;;;16.60;26.40;;;;;;5096633;28;20221;-60
2021/01/01 13:01:48;;;;;;;7.77;7.17;;;16.60;26.40;;;;;;5114102;28;20161;-60
2021/01/01 13:04:14;;;;;;;8.50;7.90;;;16.60;26.40;;;;;;5114045;28;20644;-60
2021/01/01 13:06:39;;;;;;;7.53;7.03;;;16.60;26.50;;;;;;5114066;28;20605;-59
2021/01/01 13:09:05;;;;;;;8.57;7.77;;;16.60;26.50;;;;;;5113680;28;20615;-59
2021/01/01 13:11:31;;;;;;;7.47;6.90;;;16.60;26.50;;;;;;5114165;28;20198;-60
2021/01/01 13:13:58;;;;;;;7.80;7.10;;;16.70;26.50;;;;;;5114267;28;20227;-59
2021/01/01 13:16:26;;;;;;;8.05;7.45;;;16.60;26.50;;;;;;5113919;28;20153;-59
2021/01/01 13:18:53;;;;;;;7.45;6.85;;;16.60;26.50;;;;;;5113952;28;20185;-59
2021/01/01 13:21:29;;;;;;;8.85;7.72;;;16.60;26.50;;;;;;5113997;28;20156;-58
2021/01/01 13:23:56;;;;;;;8.07;7.45;;;16.60;26.50;;;;;;5113596;28;20619;-60
2021/01/01 13:26:22;;;;;;;8.93;8.23;;;16.60;26.50;;;;;;5114056;28;20259;-60
2021/01/01 13:28:48;;;;;;;7.78;7.18;;;16.60;26.60;;;;;;5113772;28;20153;-60
2021/01/01 13:31:15;;;;;;;8.17;7.57;;;16.60;26.60;;;;;;5078849;28;20173;-59
2021/01/01 13:33:41;;;;;;;8.15;7.50;;;16.50;26.60;;;;;;5113761;28;20490;-59
2021/01/01 13:36:15;;;;;;;8.27;7.55;;;16.50;26.60;;;;;;5113779;28;20511;-59
2021/01/01 13:38:41;;;;;;;7.85;7.05;;;16.50;26.60;;;;;;5113272;28;20188;-59
2021/01/01 13:41:10;;;;;;;9.02;8.13;;;16.50;26.60;;;;;;5113907;28;20162;-60
2021/01/01 13:43:39;;;;;;;7.85;7.25;;;16.50;26.60;;;;;;5113768;28;20164;-60
2021/01/01 13:46:04;;;;;;;7.20;6.70;;;16.60;26.70;;;;;;5113606;28;20271;-60
2021/01/01 13:48:30;;;;;;;8.33;7.47;;;16.50;26.60;;;;;;5095552;28;20208;-60
2021/01/01 13:50:56;;;;;;;7.80;7.07;;;16.50;26.60;;;;;;5113695;28;20310;-60
2021/01/01 13:53:22;;;;;;;8.27;7.47;;;16.60;26.60;;;;;;5113264;28;20406;-59
2021/01/01 13:55:47;;;;;;;7.90;7.30;;;16.60;26.60;;;;;;5113696;28;20547;-60
2021/01/01 13:58:13;;;;;;;8.30;7.60;;;16.60;26.50;;;;;;5113649;28;20594;-60
2021/01/01 14:00:38;;;;;;;8.00;7.33;;;16.60;26.50;;;;;;5116178;28;20667;-60
2021/01/01 14:03:04;;;;;;;7.60;6.90;;;16.60;26.50;;;;;;5099305;28;20231;-59